createdAt,value
2019-05-14T00:01:45.566Z,35.30
2019-05-14T00:04:13.638Z,35.10
2019-05-14T00:06:43.100Z,35.30
2019-05-14T00:09:12.142Z,35.30
2019-05-14T00:11:42.134Z,35.40
2019-05-14T00:14:11.632Z,35.20
2019-05-14T00:16:42.177Z,35.70
2019-05-14T00:19:11.200Z,35.70
2019-05-14T00:21:39.254Z,35.90
2019-05-14T00:24:07.210Z,36.50
2019-05-14T00:26:36.198Z,36.50
2019-05-14T00:29:05.245Z,36.80
2019-05-14T00:31:34.362Z,37.00
2019-05-14T00:34:02.318Z,37.20
2019-05-14T00:36:31.913Z,37.20
2019-05-14T00:39:01.830Z,37.50
2019-05-14T00:41:31.277Z,38.00
2019-05-14T00:44:01.817Z,37.80
2019-05-14T00:46:31.556Z,38.00
2019-05-14T00:49:01.658Z,38.00
2019-05-14T00:51:32.201Z,38.40
2019-05-14T00:54:01.775Z,38.40
2019-05-14T00:56:31.999Z,38.50
2019-05-14T00:59:01.372Z,38.60
2019-05-14T01:01:36.115Z,38.40
2019-05-14T01:04:04.001Z,38.60
2019-05-14T01:06:31.966Z,38.50
2019-05-14T01:09:01.285Z,38.60
2019-05-14T01:11:31.642Z,38.50
2019-05-14T01:14:01.653Z,39.30
2019-05-14T01:16:31.806Z,39.40
2019-05-14T01:19:01.957Z,39.00
2019-05-14T01:21:31.256Z,39.20
2019-05-14T01:23:59.293Z,39.50
2019-05-14T01:26:27.862Z,39.40
2019-05-14T01:28:55.801Z,39.50
2019-05-14T01:31:24.010Z,39.80
2019-05-14T01:33:51.945Z,40.30
2019-05-14T01:36:21.488Z,40.50
2019-05-14T01:38:51.340Z,40.50
2019-05-14T01:41:19.489Z,40.90
2019-05-14T01:43:47.358Z,41.40
2019-05-14T01:46:15.336Z,41.20
2019-05-14T01:48:43.233Z,41.50
2019-05-14T01:51:11.938Z,41.50
2019-05-14T01:53:41.666Z,41.50
2019-05-14T01:56:11.828Z,41.70
2019-05-14T01:58:41.540Z,41.90
2019-05-14T02:01:09.434Z,42.20
2019-05-14T02:03:37.347Z,42.00
2019-05-14T02:06:05.347Z,42.10
2019-05-14T02:08:33.239Z,42.10
2019-05-14T02:11:01.810Z,42.30
2019-05-14T02:13:31.932Z,42.50
2019-05-14T02:16:01.308Z,42.70
2019-05-14T02:18:31.169Z,42.60
2019-05-14T02:21:01.537Z,42.70
2019-05-14T02:23:31.909Z,43.20
2019-05-14T02:25:59.632Z,43.40
2019-05-14T02:28:31.490Z,43.60
2019-05-14T02:31:03.329Z,43.40
2019-05-14T02:33:30.651Z,44.00
2019-05-14T02:36:00.055Z,43.90
2019-05-14T02:38:29.955Z,44.00
2019-05-14T02:40:59.945Z,44.40
2019-05-14T02:43:29.333Z,44.40
2019-05-14T02:46:10.796Z,44.60
2019-05-14T02:48:29.309Z,44.80
2019-05-14T02:50:59.989Z,45.10
2019-05-14T02:53:29.635Z,45.20
2019-05-14T02:55:59.259Z,45.50
2019-05-14T02:58:32.711Z,45.90
2019-05-14T03:01:00.922Z,46.30
2019-05-14T03:03:30.201Z,46.60
2019-05-14T03:06:00.279Z,46.80
2019-05-14T03:08:30.402Z,47.00
2019-05-14T03:11:00.338Z,47.40
2019-05-14T03:13:29.595Z,47.80
2019-05-14T03:15:59.399Z,47.90
2019-05-14T03:18:29.525Z,48.00
2019-05-14T03:21:00.860Z,48.30
2019-05-14T03:23:30.283Z,48.40
2019-05-14T03:26:00.359Z,48.30
2019-05-14T03:28:30.372Z,48.40
2019-05-14T03:31:03.002Z,49.00
2019-05-14T03:33:32.371Z,48.90
2019-05-14T03:36:06.258Z,49.00
2019-05-14T03:38:29.578Z,49.20
2019-05-14T03:41:00.127Z,49.40
2019-05-14T03:43:29.609Z,49.40
2019-05-14T03:45:59.317Z,49.70
2019-05-14T03:48:29.666Z,50.10
2019-05-14T03:51:00.147Z,50.80
2019-05-14T03:53:29.598Z,50.30
2019-05-14T03:55:59.644Z,50.30
2019-05-14T03:58:30.178Z,50.70
2019-05-14T04:01:01.046Z,50.90
2019-05-14T04:03:30.915Z,50.90
2019-05-14T04:06:01.692Z,51.50
2019-05-14T04:08:31.445Z,51.30
2019-05-14T04:11:00.757Z,51.50
2019-05-14T04:13:31.052Z,51.40
2019-05-14T04:16:01.627Z,51.50
2019-05-14T04:18:34.832Z,51.40
2019-05-14T04:21:03.841Z,51.60
2019-05-14T04:23:33.428Z,51.60
2019-05-14T04:26:04.114Z,51.70
2019-05-14T04:28:38.939Z,51.70
2019-05-14T04:31:05.509Z,51.60
2019-05-14T04:33:38.941Z,51.40
2019-05-14T04:36:05.908Z,52.20
2019-05-14T04:38:34.080Z,51.20
2019-05-14T04:41:01.926Z,51.30
2019-05-14T04:43:30.931Z,51.50
2019-05-14T04:45:59.440Z,51.40
2019-05-14T04:48:36.441Z,51.30
2019-05-14T04:51:00.352Z,51.10
2019-05-14T04:53:30.859Z,51.10
2019-05-14T04:56:00.135Z,51.60
2019-05-14T04:58:29.745Z,51.40
2019-05-14T05:01:00.139Z,51.10
2019-05-14T05:03:30.337Z,50.70
2019-05-14T05:05:58.935Z,51.10
2019-05-14T05:08:29.994Z,51.00
2019-05-14T05:10:59.679Z,50.80
2019-05-14T05:13:28.946Z,50.70
2019-05-14T05:15:59.099Z,51.30
2019-05-14T05:18:29.129Z,50.70
2019-05-14T05:20:58.279Z,50.90
2019-05-14T05:23:28.199Z,51.20
2019-05-14T05:25:58.293Z,51.10
2019-05-14T05:28:29.922Z,50.50
2019-05-14T05:30:58.567Z,50.50
2019-05-14T05:33:29.152Z,50.20
2019-05-14T05:35:59.073Z,50.20
2019-05-14T05:38:29.111Z,50.20
2019-05-14T05:40:57.754Z,50.00
2019-05-14T05:43:28.408Z,50.00
2019-05-14T05:45:56.211Z,49.40
2019-05-14T05:48:25.046Z,50.00
2019-05-14T05:50:52.978Z,49.90
2019-05-14T05:53:20.963Z,49.50
2019-05-14T05:55:48.988Z,49.50
2019-05-14T05:58:19.518Z,49.60
2019-05-14T06:00:49.546Z,48.90
2019-05-14T06:03:20.582Z,49.50
2019-05-14T06:05:49.095Z,49.40
2019-05-14T06:08:18.716Z,49.00
2019-05-14T06:10:48.796Z,48.50
2019-05-14T06:13:35.964Z,47.90
2019-05-14T06:16:04.464Z,47.50
2019-05-14T06:18:34.524Z,47.30
2019-05-14T06:21:04.694Z,47.70
2019-05-14T06:23:32.596Z,47.80
2019-05-14T06:26:00.609Z,47.70
2019-05-14T06:28:33.381Z,46.90
2019-05-14T06:30:58.975Z,48.50
2019-05-14T06:33:28.648Z,47.20
2019-05-14T06:35:59.117Z,47.80
2019-05-14T06:38:29.346Z,46.90
2019-05-14T06:40:59.091Z,45.50
2019-05-14T06:43:28.751Z,45.00
2019-05-14T06:45:58.535Z,45.80
2019-05-14T06:48:33.407Z,45.10
2019-05-14T06:50:58.232Z,45.80
2019-05-14T06:53:28.742Z,45.30
2019-05-14T06:55:58.569Z,45.00
2019-05-14T06:58:26.381Z,46.90
2019-05-14T07:00:54.386Z,45.50
2019-05-14T07:03:22.347Z,45.30
2019-05-14T07:05:51.388Z,45.50
2019-05-14T07:08:19.372Z,45.00
2019-05-14T07:10:48.596Z,44.80
2019-05-14T07:13:18.949Z,42.70
2019-05-14T07:15:48.900Z,40.70
2019-05-14T07:18:19.066Z,41.40
2019-05-14T07:20:48.533Z,40.80
2019-05-14T07:23:19.225Z,41.30
2019-05-14T07:25:48.290Z,41.10
2019-05-14T07:28:16.435Z,39.50
2019-05-14T07:30:45.013Z,38.80
2019-05-14T07:33:13.337Z,38.90
2019-05-14T07:35:41.314Z,38.60
2019-05-14T07:38:09.333Z,39.10
2019-05-14T07:40:38.858Z,38.80
2019-05-14T07:43:08.995Z,39.30
2019-05-14T07:45:38.590Z,39.10
2019-05-14T07:48:09.206Z,38.80
2019-05-14T07:50:59.660Z,39.50
2019-05-14T07:53:38.122Z,39.00
2019-05-14T07:55:56.336Z,38.10
2019-05-14T07:58:24.257Z,37.20
2019-05-14T08:00:52.293Z,36.90
2019-05-14T08:03:20.276Z,37.30
2019-05-14T08:05:48.460Z,37.30
2019-05-14T08:08:18.575Z,37.50
2019-05-14T08:10:48.501Z,35.80
2019-05-14T08:13:16.271Z,37.00
2019-05-14T08:15:44.327Z,36.10
2019-05-14T08:18:12.236Z,36.80
2019-05-14T08:20:40.173Z,34.40
2019-05-14T08:23:09.038Z,32.70
2019-05-14T08:25:38.989Z,31.30
2019-05-14T08:28:08.119Z,31.70
2019-05-14T08:30:38.703Z,32.00
2019-05-14T08:33:05.981Z,30.90
2019-05-14T08:35:35.123Z,30.00
2019-05-14T08:38:08.223Z,29.80
2019-05-14T09:15:01.366Z,23.00
2019-05-14T09:17:29.341Z,21.60
2019-05-14T09:20:05.734Z,22.10
2019-05-14T09:22:28.948Z,21.60
2019-05-14T09:26:02.327Z,21.60
2019-05-14T09:28:30.338Z,20.20
2019-05-14T09:30:59.716Z,19.90
2019-05-14T09:33:29.620Z,20.80
2019-05-14T10:07:35.602Z,21.20
2019-05-14T10:10:04.681Z,19.40
2019-05-14T10:12:39.325Z,19.80
2019-05-14T10:15:04.305Z,19.50
2019-05-14T10:17:32.337Z,20.10
2019-05-14T10:20:35.550Z,20.30
2019-05-14T10:22:49.315Z,19.90
2019-05-14T10:25:18.202Z,20.00
2019-05-14T10:27:48.396Z,20.10
2019-05-14T10:30:18.196Z,19.80
2019-05-14T10:32:49.027Z,20.40
2019-05-14T10:35:18.991Z,20.50
2019-05-14T10:37:46.292Z,20.50
2019-05-14T10:40:14.271Z,21.20
2019-05-14T10:42:42.170Z,21.40
2019-05-14T10:45:12.858Z,20.50
2019-05-14T10:47:40.522Z,20.00
2019-05-14T10:54:22.322Z,20.20
2019-05-14T10:56:44.771Z,19.40
2019-05-14T10:59:13.785Z,19.30
2019-05-14T11:01:41.620Z,19.00
2019-05-14T11:04:09.538Z,18.30
2019-05-14T11:06:38.788Z,18.00
2019-05-14T11:09:09.084Z,17.40
2019-05-14T11:11:38.229Z,17.90
2019-05-14T11:14:08.605Z,17.90
2019-05-14T11:16:36.181Z,17.80
2019-05-14T11:19:04.115Z,17.80
2019-05-14T11:21:31.974Z,18.30
2019-05-14T11:23:59.827Z,18.30
2019-05-14T11:26:29.541Z,18.10
2019-05-14T11:29:04.983Z,18.30
2019-05-14T11:31:34.352Z,18.30
2019-05-14T11:34:02.518Z,17.10
2019-05-14T11:36:30.356Z,18.70
2019-05-14T11:39:03.492Z,18.20
2019-05-14T11:41:28.139Z,17.90
2019-05-14T11:43:56.013Z,17.90
2019-05-14T11:46:34.210Z,18.00
2019-05-14T11:48:54.635Z,17.90
2019-05-14T11:51:46.064Z,18.10
2019-05-14T11:53:53.625Z,17.80
2019-05-14T11:56:21.602Z,18.60
2019-05-14T11:58:49.487Z,18.20
2019-05-14T12:01:19.072Z,18.00
2019-05-14T12:03:49.948Z,18.50
2019-05-14T12:06:18.556Z,17.60
2019-05-14T12:09:06.118Z,17.20
2019-05-14T12:11:38.305Z,18.30
2019-05-14T12:14:08.583Z,17.40
2019-05-14T12:16:36.110Z,17.00
2019-05-14T12:19:04.024Z,16.40
2019-05-14T12:21:31.954Z,17.40
2019-05-14T12:24:13.648Z,17.60
2019-05-14T12:26:42.823Z,17.40
2019-05-14T12:29:10.712Z,17.60
2019-05-14T12:31:38.830Z,17.70
2019-05-14T12:34:06.897Z,18.20
2019-05-14T12:36:34.735Z,17.90
2019-05-14T12:39:05.378Z,17.80
2019-05-14T12:41:33.368Z,17.80
2019-05-14T12:44:01.329Z,17.80
2019-05-14T12:46:29.545Z,18.10
2019-05-14T12:48:58.975Z,18.30
2019-05-14T12:51:26.964Z,16.70
2019-05-14T12:53:54.837Z,16.70
2019-05-14T12:56:39.169Z,17.20
2019-05-14T12:59:08.383Z,17.00
2019-05-14T13:01:36.539Z,17.70
2019-05-14T13:04:04.393Z,17.50
2019-05-14T13:06:32.289Z,17.10
2019-05-14T13:09:00.164Z,15.80
2019-05-14T13:11:29.587Z,16.10
2019-05-14T13:13:58.536Z,16.40
2019-05-14T13:16:28.535Z,16.80
2019-05-14T13:18:56.725Z,17.00
2019-05-14T13:21:25.626Z,15.70
2019-05-14T13:23:53.583Z,15.80
2019-05-14T13:26:21.439Z,16.10
2019-05-14T13:28:50.718Z,16.40
2019-05-14T13:31:19.209Z,16.80
2019-05-14T13:33:48.871Z,17.40
2019-05-14T13:36:20.419Z,16.50
2019-05-14T13:38:49.142Z,15.20
2019-05-14T13:41:19.037Z,14.60
2019-05-14T13:43:46.327Z,14.30
2019-05-14T13:46:15.229Z,14.10
2019-05-14T13:48:43.898Z,14.00
2019-05-14T13:51:11.887Z,14.00
2019-05-14T13:53:39.767Z,13.80
2019-05-14T13:56:09.026Z,14.60
2019-05-14T13:58:37.265Z,14.00
2019-05-14T14:01:05.182Z,13.50
2019-05-14T14:03:33.063Z,13.70
2019-05-14T14:06:01.321Z,13.90
2019-05-14T14:08:29.515Z,15.30
2019-05-14T14:11:02.775Z,15.60
2019-05-14T14:13:28.584Z,16.10
2019-05-14T14:16:03.748Z,16.70
2019-05-14T14:18:31.630Z,16.50
2019-05-14T14:20:59.566Z,15.20
2019-05-14T14:23:31.010Z,13.40
2019-05-14T14:25:59.540Z,12.50
2019-05-14T14:28:27.013Z,12.00
2019-05-14T14:30:54.890Z,13.30
2019-05-14T14:33:22.762Z,13.80
2019-05-14T14:35:50.627Z,12.80
2019-05-14T14:38:20.112Z,11.60
2019-05-14T14:40:48.750Z,11.30
2019-05-14T14:43:18.841Z,11.90
2019-05-14T14:45:50.314Z,13.00
2019-05-14T14:48:16.389Z,14.40
2019-05-14T14:50:44.362Z,13.00
2019-05-14T14:53:12.226Z,13.40
2019-05-14T14:55:40.348Z,14.10
2019-05-14T14:58:11.453Z,14.30
2019-05-14T15:00:38.310Z,14.40
2019-05-14T15:03:09.878Z,15.30
2019-05-14T15:05:39.045Z,14.80
2019-05-14T15:08:10.030Z,15.30
2019-05-14T15:10:36.123Z,15.90
2019-05-14T15:13:04.057Z,16.20
2019-05-14T15:15:32.609Z,15.70
2019-05-14T15:18:00.743Z,17.20
2019-05-14T15:20:29.062Z,15.80
2019-05-14T15:23:00.000Z,14.00
2019-05-14T15:25:28.941Z,13.20
2019-05-14T15:27:58.437Z,12.40
2019-05-14T15:30:28.721Z,12.70
2019-05-14T15:32:59.827Z,12.80
2019-05-14T15:35:28.526Z,14.10
2019-05-14T15:37:58.923Z,15.50
2019-05-14T15:40:28.956Z,15.40
2019-05-14T15:42:58.987Z,15.60
2019-05-14T15:45:28.657Z,17.10
2019-05-14T15:48:02.682Z,16.30
2019-05-14T15:50:25.726Z,15.90
2019-05-14T15:52:53.615Z,14.30
2019-05-14T15:55:21.553Z,14.50
2019-05-14T15:57:49.458Z,13.10
2019-05-14T16:00:19.819Z,13.00
2019-05-14T16:02:50.307Z,14.10
2019-05-14T16:05:18.874Z,14.30
2019-05-14T16:07:49.408Z,15.80
2019-05-14T16:10:21.416Z,16.50
2019-05-14T16:12:49.652Z,16.90
2019-05-14T16:15:18.824Z,18.10
2019-05-14T16:18:03.327Z,17.30
2019-05-14T16:20:18.860Z,19.00
2019-05-14T16:22:46.648Z,18.30
2019-05-14T16:25:14.719Z,17.80
2019-05-14T16:27:42.676Z,17.30
2019-05-14T16:30:10.617Z,16.30
2019-05-14T16:32:39.543Z,17.10
2019-05-14T16:35:09.025Z,17.30
2019-05-14T16:37:39.171Z,18.00
2019-05-14T16:40:07.243Z,18.00
2019-05-14T16:42:35.225Z,17.60
2019-05-14T16:45:04.577Z,17.30
2019-05-14T16:47:33.626Z,17.70
2019-05-14T16:50:04.068Z,18.00
2019-05-14T16:52:32.149Z,18.30
2019-05-14T16:55:17.278Z,18.30
2019-05-14T16:57:31.023Z,18.40
2019-05-14T16:59:58.926Z,18.80
2019-05-14T17:02:29.426Z,18.80
2019-05-14T17:04:58.921Z,17.80
2019-05-14T17:07:28.722Z,17.80
2019-05-14T17:09:58.116Z,18.10
2019-05-14T17:12:26.137Z,18.20
2019-05-14T17:14:54.190Z,17.90
2019-05-14T17:17:22.216Z,18.30
2019-05-14T17:19:50.170Z,18.10
2019-05-14T17:22:27.783Z,19.20
2019-05-14T17:24:49.073Z,18.20
2019-05-14T17:27:17.346Z,18.80
2019-05-14T17:29:45.295Z,18.00
2019-05-14T17:32:13.244Z,18.00
2019-05-14T17:34:42.260Z,18.60
2019-05-14T17:37:10.339Z,18.70
2019-05-14T17:39:38.874Z,19.10
2019-05-14T17:42:11.807Z,19.40
2019-05-14T17:44:38.822Z,20.20
2019-05-14T17:47:07.069Z,20.50
2019-05-14T17:49:35.858Z,20.60
2019-05-14T17:52:03.869Z,20.80
2019-05-14T17:54:31.777Z,21.40
2019-05-14T17:56:59.768Z,21.10
2019-05-14T17:59:29.837Z,21.50
2019-05-14T18:01:58.972Z,21.90
2019-05-14T18:04:28.335Z,22.00
2019-05-14T18:06:58.996Z,22.00
2019-05-14T18:09:26.246Z,21.70
2019-05-14T18:11:54.124Z,22.30
2019-05-14T18:14:22.067Z,21.50
2019-05-14T18:16:50.010Z,21.90
2019-05-14T18:19:18.335Z,21.90
2019-05-14T18:21:48.658Z,22.40
2019-05-14T18:24:18.769Z,23.00
2019-05-14T18:26:48.054Z,23.00
2019-05-14T18:29:18.738Z,23.30
2019-05-14T18:31:52.612Z,23.40
2019-05-14T18:34:15.761Z,23.90
2019-05-14T18:36:43.716Z,23.70
2019-05-14T18:39:11.727Z,23.90
2019-05-14T18:41:39.647Z,24.30
2019-05-14T18:44:08.406Z,25.20
2019-05-14T18:46:39.187Z,24.90
2019-05-14T18:49:08.595Z,24.90
2019-05-14T18:51:36.894Z,24.80
2019-05-14T18:54:04.884Z,25.10
2019-05-14T18:56:32.818Z,25.40
2019-05-14T18:59:08.750Z,25.90
2019-05-14T19:01:36.149Z,26.00
2019-05-14T19:04:08.287Z,26.20
2019-05-14T19:06:38.342Z,26.10
2019-05-14T19:09:10.440Z,26.50
2019-05-14T19:11:38.775Z,26.90
2019-05-14T19:14:08.999Z,27.00
2019-05-14T19:16:38.350Z,27.60
2019-05-14T19:19:08.085Z,28.00
2019-05-14T19:21:38.043Z,28.50
2019-05-14T19:24:05.971Z,29.10
2019-05-14T19:26:37.050Z,29.40
2019-05-14T19:29:03.740Z,29.60
2019-05-14T19:31:32.074Z,30.00
2019-05-14T19:34:00.103Z,29.60
2019-05-14T19:36:29.080Z,29.90
2019-05-14T19:39:04.294Z,32.00
2019-05-14T19:41:32.271Z,32.90
2019-05-14T19:44:00.339Z,31.80
2019-05-14T19:46:29.427Z,32.60
2019-05-14T19:48:59.108Z,32.10
2019-05-14T19:51:28.898Z,32.40
2019-05-14T19:53:58.631Z,33.50
2019-05-14T19:56:29.137Z,32.60
2019-05-14T19:58:56.547Z,32.60
2019-05-14T20:01:24.567Z,32.70
2019-05-14T20:03:52.781Z,32.50
2019-05-14T20:06:20.815Z,33.00
2019-05-14T20:08:48.772Z,32.50
2019-05-14T20:11:19.117Z,32.70
2019-05-14T20:13:48.572Z,34.80
2019-05-14T20:16:18.484Z,33.60
2019-05-14T20:18:48.613Z,35.20
2019-05-14T20:21:16.489Z,35.50
2019-05-14T20:23:44.478Z,33.80
2019-05-14T20:26:12.739Z,34.30
2019-05-14T20:28:41.164Z,35.20
2019-05-14T20:31:10.574Z,35.70
2019-05-14T20:33:38.797Z,35.90
2019-05-14T20:36:08.306Z,36.80
2019-05-14T20:38:38.602Z,37.90
2019-05-14T20:41:08.548Z,38.20
2019-05-14T20:43:38.304Z,38.60
2019-05-14T20:46:05.863Z,39.60
2019-05-14T20:48:33.816Z,39.20
2019-05-14T20:51:01.843Z,39.90
2019-05-14T20:53:29.953Z,39.30
2019-05-14T20:55:59.048Z,40.10
2019-05-14T20:58:27.962Z,41.00
2019-05-14T21:00:55.959Z,41.00
2019-05-14T21:03:23.939Z,41.80
2019-05-14T21:05:51.864Z,41.30
2019-05-14T21:08:19.818Z,42.20
2019-05-14T21:10:49.439Z,43.00
2019-05-14T21:13:18.173Z,42.50
2019-05-14T21:15:48.291Z,43.30
2019-05-14T21:18:16.090Z,43.70
2019-05-14T21:20:44.121Z,43.40
2019-05-14T21:23:12.083Z,44.30
2019-05-14T21:25:40.223Z,44.90
2019-05-14T21:28:09.280Z,45.10
2019-05-14T21:30:38.805Z,44.30
2019-05-14T21:33:08.454Z,44.60
2019-05-14T21:35:38.734Z,47.20
2019-05-14T21:38:08.903Z,46.20
2019-05-14T21:40:38.727Z,46.60
2019-05-14T21:43:06.198Z,46.70
2019-05-14T21:45:34.148Z,47.90
2019-05-14T21:48:02.099Z,47.90
2019-05-14T21:50:30.133Z,48.30
2019-05-14T21:52:59.597Z,48.50
2019-05-14T21:55:28.922Z,48.60
2019-05-14T21:57:57.432Z,49.80
2019-05-14T22:00:38.763Z,50.60
2019-05-14T22:03:10.245Z,49.70
2019-05-14T22:05:39.321Z,49.60
2019-05-14T22:08:08.797Z,48.20
2019-05-14T22:10:39.859Z,47.80
2019-05-14T22:13:07.015Z,48.30
2019-05-14T22:15:34.895Z,48.60
2019-05-14T22:18:11.482Z,49.70
2019-05-14T22:20:33.975Z,50.80
2019-05-14T22:23:02.021Z,52.00
2019-05-14T22:25:32.162Z,52.70
2019-05-14T22:28:11.155Z,51.30
2019-05-14T22:30:30.479Z,52.20
2019-05-14T22:33:01.414Z,53.90
2019-05-14T22:35:31.288Z,53.70
2019-05-14T22:37:59.768Z,53.60
2019-05-14T22:40:29.247Z,54.00
2019-05-14T22:43:00.340Z,53.90
2019-05-14T22:45:28.395Z,53.00
2019-05-14T22:47:58.916Z,52.20
2019-05-14T22:50:29.168Z,52.90
2019-05-14T22:52:58.474Z,52.60
2019-05-14T22:55:28.959Z,52.40
2019-05-14T22:57:58.977Z,51.90
2019-05-14T23:00:28.663Z,52.00
2019-05-14T23:02:56.265Z,52.20
2019-05-14T23:05:24.173Z,53.00
2019-05-14T23:07:53.308Z,53.40
2019-05-14T23:10:21.186Z,53.10
2019-05-14T23:12:49.077Z,52.50
2019-05-14T23:15:18.154Z,53.10
2019-05-14T23:17:48.053Z,53.70
2019-05-14T23:20:16.099Z,53.90
2019-05-14T23:22:44.021Z,52.80
2019-05-14T23:25:12.314Z,53.90
2019-05-14T23:27:41.450Z,54.50
2019-05-14T23:30:09.940Z,55.00
2019-05-14T23:32:38.801Z,53.40
2019-05-14T23:35:07.983Z,54.20
2019-05-14T23:37:36.159Z,53.00
2019-05-14T23:40:05.469Z,52.80
2019-05-14T23:42:33.317Z,52.40
2019-05-14T23:45:01.518Z,52.00
2019-05-14T23:47:32.329Z,51.50
2019-05-14T23:50:00.308Z,52.40
2019-05-14T23:52:29.343Z,52.90
2019-05-14T23:54:57.690Z,54.20
2019-05-14T23:57:25.550Z,53.90
2019-05-14T23:59:53.447Z,54.90
